Time;durP1;ratioP1;P1;durP2;ratioP2;P2;SDS_P1;SDS_P2;PMS_P1;PMS_P2;Temp;Humidity;BMP_temperature;BMP_pressure;BME280_temperature;BME280_humidity;BME280_pressure;Samples;Min_cycle;Max_cycle;Signal;HPM_P1;HPM_P2
2023/05/13 00:00:38;;;;;;;5.07;4.50;;;;;;;11.40;80.98;99034.25;4956583;28;40989;-78
2023/05/13 00:03:06;;;;;;;6.03;4.97;;;;;;;11.38;81.07;99032.63;4952386;28;41998;-78
2023/05/13 00:05:35;;;;;;;5.17;4.77;;;;;;;11.21;80.96;99001.06;4976988;28;43062;-79
2023/05/13 00:08:06;;;;;;;6.03;4.87;;;;;;;11.32;80.64;99030.38;4947366;28;41308;-78
2023/05/13 00:10:33;;;;;;;5.13;4.57;;;;;;;11.30;80.55;99021.66;4956535;28;40347;-79
2023/05/13 00:13:01;;;;;;;5.83;5.33;;;;;;;11.28;80.49;99037.66;4955079;28;40646;-78
2023/05/13 00:15:29;;;;;;;5.73;5.23;;;;;;;11.23;80.76;99025.66;4962148;28;42745;-79
2023/05/13 00:17:56;;;;;;;4.63;4.23;;;;;;;11.22;80.47;99029.25;4967977;28;42000;-78
2023/05/13 00:20:24;;;;;;;4.47;4.07;;;;;;;11.21;80.86;99038.16;4943686;28;39162;-78
2023/05/13 00:22:53;;;;;;;6.10;5.50;;;;;;;11.19;81.30;99024.16;4956894;28;42049;-79
2023/05/13 00:25:20;;;;;;;5.60;5.10;;;;;;;11.16;81.40;99020.72;4961337;28;42793;-78
2023/05/13 00:27:48;;;;;;;5.60;5.10;;;;;;;11.15;81.73;99029.63;4965714;28;41077;-79
2023/05/13 00:30:15;;;;;;;5.70;4.93;;;;;;;10.95;81.73;98995.56;4962068;28;40176;-78
2023/05/13 00:32:43;;;;;;;5.13;4.50;;;;;;;11.14;82.27;99017.31;4972000;28;41463;-78
2023/05/13 00:35:10;;;;;;;5.07;4.53;;;;;;;11.12;82.36;99019.25;4960172;28;41617;-79
2023/05/13 00:37:38;;;;;;;5.13;4.73;;;;;;;11.11;81.94;99027.28;4950726;28;41218;-78
2023/05/13 00:40:17;;;;;;;4.97;4.57;;;;;;;11.10;82.51;99023.78;4969525;28;39712;-78
2023/05/13 00:42:44;;;;;;;5.50;5.00;;;;;;;11.07;82.13;99013.38;4986053;28;42528;-78
2023/05/13 00:45:12;;;;;;;5.07;4.67;;;;;;;11.08;82.01;99020.38;4959904;28;42788;-78
2023/05/13 00:47:40;;;;;;;5.83;5.33;;;;;;;11.06;82.30;99019.59;4969323;28;40916;-78
2023/05/13 00:50:09;;;;;;;5.07;4.47;;;;;;;11.06;82.02;99024.91;4943104;28;38770;-79
2023/05/13 00:52:38;;;;;;;5.70;4.87;;;;;;;10.85;82.59;98983.00;4954819;28;41106;-79
2023/05/13 00:55:08;;;;;;;4.93;4.00;;;;;;;11.05;82.27;99012.59;4958643;28;42822;-79
2023/05/13 00:57:38;;;;;;;4.80;4.33;;;;;;;11.03;82.27;99009.19;4950631;28;41272;-78
2023/05/13 01:00:08;;;;;;;5.53;5.03;;;;;;;11.06;82.51;99018.75;4935644;28;40950;-79
2023/05/13 01:02:39;;;;;;;5.67;5.17;;;;;;;11.05;83.05;99011.75;4940879;28;41520;-79
2023/05/13 01:05:19;;;;;;;5.10;4.63;;;;;;;11.07;82.94;99016.00;4940964;28;42016;-79
2023/05/13 01:07:56;;;;;;;5.40;4.90;;;;;;;11.06;82.41;99011.66;4940859;28;41374;-79
2023/05/13 01:10:34;;;;;;;4.60;4.20;;;;;;;10.94;82.19;99006.25;4941140;28;39260;-79
2023/05/13 01:13:12;;;;;;;5.37;4.70;;;;;;;10.95;82.21;99010.63;4940784;28;40751;-79
2023/05/13 01:15:43;;;;;;;4.60;4.10;;;;;;;11.03;82.67;99017.13;4941063;28;42803;-79
2023/05/13 01:18:15;;;;;;;4.27;3.87;;;;;;;11.03;82.25;99011.84;4971955;28;42377;-79
2023/05/13 01:20:43;;;;;;;4.90;4.50;;;;;;;11.02;82.88;99015.44;4954287;28;40806;-78
2023/05/13 01:23:12;;;;;;;4.70;3.97;;;;;;;11.02;82.44;99012.78;4972976;28;41786;-79
2023/05/13 01:25:40;;;;;;;4.10;3.80;;;;;;;11.02;82.30;99007.47;4940839;28;41842;-78
2023/05/13 01:28:09;;;;;;;5.40;4.90;;;;;;;11.04;82.73;99004.75;4956866;28;41283;-78
2023/05/13 01:30:39;;;;;;;5.23;4.27;;;;;;;11.01;83.33;99005.78;4941082;28;38900;-78
2023/05/13 01:33:07;;;;;;;4.57;4.17;;;;;;;11.04;83.79;99000.28;4940656;28;40638;-79
2023/05/13 01:35:34;;;;;;;4.73;4.33;;;;;;;11.08;83.43;99011.56;4940977;28;42855;-78
2023/05/13 01:38:04;;;;;;;6.03;5.23;;;;;;;11.10;83.29;99010.53;4957053;28;43493;-78
2023/05/13 01:40:35;;;;;;;4.17;3.77;;;;;;;10.99;82.67;98997.09;4940987;28;39224;-78
2023/05/13 01:43:05;;;;;;;4.10;3.70;;;;;;;11.12;82.54;99015.75;4954669;28;42560;-79
2023/05/13 01:45:33;;;;;;;4.83;4.43;;;;;;;11.10;83.09;99015.84;4940448;28;44315;-78
2023/05/13 01:48:02;;;;;;;4.77;4.37;;;;;;;11.08;83.12;99017.72;4940036;28;42584;-78
2023/05/13 01:50:39;;;;;;;5.53;4.90;;;;;;;10.97;82.85;99004.28;4940677;28;42576;-78
2023/05/13 01:53:07;;;;;;;4.53;4.07;;;;;;;11.07;82.56;99016.00;4940653;28;41923;-78
2023/05/13 01:55:37;;;;;;;4.63;3.53;;;;;;;11.06;82.89;99019.59;4940208;28;41720;-78
2023/05/13 01:58:05;;;;;;;4.80;4.40;;;;;;;11.03;82.91;99022.44;4956597;28;42297;-78
2023/05/13 02:00:33;;;;;;;4.43;4.03;;;;;;;11.01;83.01;99021.69;4940003;28;40118;-78
2023/05/13 02:03:00;;;;;;;4.00;3.70;;;;;;;10.99;82.79;99018.28;4940390;28;40735;-78
2023/05/13 02:05:30;;;;;;;4.23;3.87;;;;;;;10.98;83.16;99019.25;4956623;28;42629;-78
2023/05/13 02:07:58;;;;;;;4.37;3.90;;;;;;;10.94;83.25;99019.50;4956292;28;42252;-78
2023/05/13 02:10:26;;;;;;;5.23;3.77;;;;;;;10.94;83.31;99020.38;4940196;28;39053;-78
2023/05/13 02:12:55;;;;;;;4.40;4.10;;;;;;;10.96;83.74;99029.06;4955900;28;40740;-78
2023/05/13 02:15:22;;;;;;;3.83;3.53;;;;;;;10.96;83.29;99029.06;4940176;28;41474;-78
2023/05/13 02:17:50;;;;;;;4.07;3.67;;;;;;;10.93;83.11;99021.31;4940237;28;42437;-78
2023/05/13 02:20:18;;;;;;;4.37;3.97;;;;;;;10.92;83.39;99030.19;4940065;28;39980;-79
2023/05/13 02:22:46;;;;;;;4.20;3.80;;;;;;;10.92;83.50;99030.19;4940286;28;41819;-78
2023/05/13 02:25:13;;;;;;;6.70;4.13;;;;;;;10.90;83.68;99026.78;4939960;28;41847;-78
2023/05/13 02:31:55;;;;;;;5.10;4.50;;;;;;;10.84;83.80;99028.97;4973986;28;40647;-78
2023/05/13 02:34:30;;;;;;;3.93;3.63;;;;;;;10.82;84.11;99023.75;4939410;28;43092;-78
2023/05/13 02:37:39;;;;;;;4.73;3.90;;;;;;;10.81;83.69;99019.41;4939714;28;42019;-78
2023/05/13 02:41:11;;;;;;;4.83;4.00;;;;;;;10.75;84.33;99023.28;4970010;28;43781;-79
2023/05/13 02:43:39;;;;;;;3.90;3.60;;;;;;;10.76;84.00;99021.47;4939566;28;41219;-78
2023/05/13 02:46:07;;;;;;;4.40;4.00;;;;;;;10.76;84.09;99021.47;4956144;28;41882;-78
2023/05/13 02:48:36;;;;;;;5.30;4.67;;;;;;;10.75;84.70;99017.16;4955536;28;43758;-78
2023/05/13 02:51:04;;;;;;;5.30;4.17;;;;;;;10.74;85.11;99029.53;4955935;28;42249;-78
2023/05/13 02:53:31;;;;;;;4.13;3.83;;;;;;;10.74;84.83;99018.94;4939380;28;38953;-78
2023/05/13 02:56:04;;;;;;;4.50;4.10;;;;;;;10.69;84.50;99012.19;4952819;28;42774;-78
2023/05/13 02:58:31;;;;;;;4.67;4.27;;;;;;;10.73;84.24;99022.53;4955045;28;42669;-78
2023/05/13 03:05:15;;;;;;;4.67;4.27;;;;;;;10.66;83.99;99020.31;4970519;28;41200;-78
2023/05/13 03:07:43;;;;;;;4.53;4.03;;;;;;;10.64;84.16;99027.50;4955443;28;41990;-78
2023/05/13 03:10:11;;;;;;;4.80;4.30;;;;;;;10.52;84.50;99001.75;4955525;28;42517;-78
2023/05/13 03:12:38;;;;;;;4.97;4.47;;;;;;;10.59;84.35;99021.66;4938896;28;40885;-78
2023/05/13 03:15:07;;;;;;;4.80;4.40;;;;;;;10.59;84.21;99029.59;4955515;28;39874;-78
2023/05/13 03:17:35;;;;;;;5.30;4.80;;;;;;;10.57;84.50;99028.81;4939162;28;40979;-79
2023/05/13 03:20:03;;;;;;;4.57;4.07;;;;;;;10.57;84.02;99034.97;4939099;28;44594;-79
2023/05/13 03:22:33;;;;;;;4.33;3.93;;;;;;;10.55;83.56;99031.56;4954776;28;42564;-78
2023/05/13 03:25:01;;;;;;;4.20;3.80;;;;;;;10.44;84.20;99016.31;4939336;28;38921;-78
2023/05/13 03:27:35;;;;;;;4.13;3.83;;;;;;;10.49;84.28;99039.03;4939295;28;40624;-78
2023/05/13 03:30:03;;;;;;;5.60;4.20;;;;;;;10.42;84.02;99039.38;4955085;28;43785;-78
2023/05/13 03:32:31;;;;;;;4.20;3.80;;;;;;;10.42;84.14;99038.53;4938570;28;41730;-78
2023/05/13 03:35:00;;;;;;;3.97;3.67;;;;;;;10.39;83.89;99038.69;4939119;28;40340;-79
2023/05/13 03:37:29;;;;;;;3.43;3.23;;;;;;;10.37;83.57;99041.47;4955025;28;41972;-79
2023/05/13 03:39:58;;;;;;;4.30;3.90;;;;;;;10.37;83.98;99040.63;4955238;28;42897;-79
2023/05/13 03:42:26;;;;;;;4.10;3.80;;;;;;;10.36;83.78;99042.41;4938842;28;41001;-78
2023/05/13 03:44:56;;;;;;;6.10;3.93;;;;;;;10.25;83.94;99017.50;4938833;28;39295;-78
2023/05/13 03:47:24;;;;;;;4.27;3.87;;;;;;;10.37;84.10;99040.63;4971722;28;42713;-78
2023/05/13 03:49:52;;;;;;;4.27;3.40;;;;;;;10.33;83.64;99034.63;4938771;28;42109;-78
2023/05/13 03:52:20;;;;;;;4.37;3.97;;;;;;;10.39;84.30;99031.59;4955275;28;42199;-78
2023/05/13 03:54:48;;;;;;;4.20;3.90;;;;;;;10.40;83.86;99045.69;4938683;28;39080;-78
2023/05/13 03:57:17;;;;;;;4.63;4.10;;;;;;;10.41;85.16;99042.97;4938954;28;40685;-80
2023/05/13 03:59:45;;;;;;;4.40;4.10;;;;;;;10.43;85.07;99046.38;4938099;28;41895;-79
2023/05/13 04:02:13;;;;;;;4.53;4.03;;;;;;;10.47;84.99;99048.84;4938764;28;41413;-78
2023/05/13 04:04:41;;;;;;;3.73;3.43;;;;;;;10.51;85.04;99058.34;4954705;28;40126;-78
2023/05/13 04:07:08;;;;;;;4.40;4.00;;;;;;;10.55;84.78;99059.84;4938814;28;40982;-78
2023/05/13 04:09:36;;;;;;;4.23;3.83;;;;;;;10.57;84.50;99063.25;4954261;28;41800;-79
2023/05/13 04:12:03;;;;;;;4.13;3.83;;;;;;;10.63;84.38;99065.56;4938894;28;42246;-78
2023/05/13 04:14:32;;;;;;;4.27;3.97;;;;;;;10.68;84.78;99071.41;4954394;28;40145;-78
2023/05/13 04:17:00;;;;;;;4.23;3.83;;;;;;;10.75;84.39;99064.81;4971954;28;41803;-78
2023/05/13 04:19:27;;;;;;;4.70;4.30;;;;;;;10.80;85.02;99073.34;4954490;28;42802;-79
2023/05/13 04:21:55;;;;;;;5.27;4.50;;;;;;;10.85;84.81;99070.41;4954669;28;42090;-78
2023/05/13 04:24:24;;;;;;;4.77;4.33;;;;;;;10.89;84.73;99070.13;4938661;28;39783;-78
2023/05/13 04:26:51;;;;;;;4.23;3.87;;;;;;;10.97;84.02;99072.31;4938591;28;41158;-78
2023/05/13 04:29:19;;;;;;;4.23;3.83;;;;;;;10.96;83.61;99066.16;4938311;28;41759;-78
2023/05/13 04:31:49;;;;;;;4.37;4.07;;;;;;;11.06;83.98;99071.75;4938151;28;41654;-78
2023/05/13 04:34:17;;;;;;;4.10;3.80;;;;;;;11.00;83.62;99051.78;4938531;28;39155;-78
2023/05/13 04:36:45;;;;;;;4.20;3.80;;;;;;;11.16;83.49;99076.41;4954253;28;41797;-78
2023/05/13 04:39:12;;;;;;;4.10;3.73;;;;;;;11.14;82.99;99067.69;4938231;28;42103;-78
2023/05/13 04:41:40;;;;;;;4.20;3.80;;;;;;;11.26;82.78;99078.47;4938077;28;41099;-78
2023/05/13 04:44:08;;;;;;;4.20;3.90;;;;;;;11.32;82.97;99078.13;4954355;28;40237;-78
2023/05/13 04:46:36;;;;;;;7.77;5.47;;;;;;;11.35;82.76;99083.22;4937853;28;40708;-78
2023/05/13 04:49:05;;;;;;;4.40;4.00;;;;;;;11.39;82.44;99090.03;4938256;28;42101;-78
2023/05/13 04:51:33;;;;;;;4.50;3.57;;;;;;;11.42;82.33;99081.88;4954082;28;43189;-78
2023/05/13 04:54:01;;;;;;;4.20;3.87;;;;;;;11.53;82.14;99087.38;4938261;28;38694;-77
2023/05/13 04:56:29;;;;;;;4.13;3.73;;;;;;;11.64;82.11;99087.53;4953638;28;41776;-78
2023/05/13 04:58:56;;;;;;;4.50;4.10;;;;;;;11.77;81.71;99091.16;4939686;28;42887;-78
2023/05/13 05:01:24;;;;;;;4.23;3.93;;;;;;;11.87;81.53;99091.41;4941162;28;41537;-78
2023/05/13 05:03:51;;;;;;;6.10;4.30;;;;;;;11.96;81.14;99084.69;4941067;28;40053;-78
2023/05/13 05:06:21;;;;;;;4.50;3.87;;;;;;;12.11;81.09;99091.66;4957133;28;40293;-79
2023/05/13 05:08:49;;;;;;;4.10;3.70;;;;;;;12.23;80.75;99098.84;4941126;28;41916;-78
2023/05/13 05:11:17;;;;;;;3.80;3.50;;;;;;;12.34;80.42;99100.78;4956912;28;42385;-78
2023/05/13 05:13:45;;;;;;;3.60;3.30;;;;;;;12.45;80.36;99099.13;4941176;28;39783;-78
2023/05/13 05:16:12;;;;;;;3.53;3.23;;;;;;;12.56;80.21;99104.56;4957090;28;42354;-78
2023/05/13 05:18:42;;;;;;;4.10;3.70;;;;;;;12.68;79.85;99110.03;4957211;28;43786;-79
2023/05/13 05:21:10;;;;;;;3.50;3.23;;;;;;;12.78;79.42;99105.78;4956844;28;42258;-78
2023/05/13 05:23:39;;;;;;;3.53;3.13;;;;;;;12.91;79.17;99112.81;4941080;28;38945;-78
2023/05/13 05:26:06;;;;;;;4.53;4.13;;;;;;;13.03;78.77;99113.78;4940643;28;40957;-79
2023/05/13 05:28:35;;;;;;;4.20;3.80;;;;;;;13.18;78.75;99118.09;4940843;28;42626;-77
2023/05/13 05:31:03;;;;;;;3.63;3.33;;;;;;;13.30;78.59;99124.38;4940798;28;41614;-79
2023/05/13 05:33:32;;;;;;;4.10;3.80;;;;;;;13.34;78.10;99122.38;4956837;28;40893;-79
2023/05/13 05:36:00;;;;;;;4.90;3.63;;;;;;;13.45;77.73;99118.00;4956182;28;41792;-79
2023/05/13 05:38:28;;;;;;;4.80;4.23;;;;;;;13.40;77.64;99098.84;4956893;28;42850;-79
2023/05/13 05:40:59;;;;;;;4.87;4.43;;;;;;;13.70;76.48;99132.22;4940691;28;41116;-78
2023/05/13 05:43:28;;;;;;;4.37;3.97;;;;;;;13.81;76.65;99130.50;4940808;28;40021;-79
2023/05/13 05:45:55;;;;;;;4.53;4.07;;;;;;;13.92;75.94;99127.94;4940673;28;41133;-78
2023/05/13 05:48:23;;;;;;;4.20;3.83;;;;;;;14.07;75.74;99136.63;4940660;28;41469;-78
2023/05/13 05:50:51;;;;;;;3.90;3.60;;;;;;;14.19;74.09;99143.72;4940231;28;41672;-78
2023/05/13 05:53:26;;;;;;;3.80;3.50;;;;;;;14.31;73.41;99141.97;4940924;28;39049;-79
2023/05/13 05:55:54;;;;;;;4.20;3.63;;;;;;;14.44;73.35;99133.97;4940217;28;41113;-79
2023/05/13 05:58:25;;;;;;;4.53;3.90;;;;;;;14.53;71.25;99144.78;4940170;28;42591;-79
2023/05/13 06:00:54;;;;;;;3.83;3.53;;;;;;;14.58;70.49;99123.16;4956122;28;43214;-79
2023/05/13 06:03:21;;;;;;;4.17;3.57;;;;;;;14.83;70.31;99146.16;4956464;28;41667;-79
2023/05/13 06:05:49;;;;;;;3.70;3.03;;;;;;;14.97;70.73;99144.13;4939966;28;43163;-80
2023/05/13 06:08:17;;;;;;;4.50;3.00;;;;;;;15.15;70.97;99141.03;4940249;28;42774;-79
2023/05/13 06:10:45;;;;;;;3.83;3.53;;;;;;;15.32;70.29;99136.09;4956081;28;42582;-79
2023/05/13 06:13:13;;;;;;;3.73;3.37;;;;;;;15.61;69.25;99154.34;4940410;28;38788;-80
2023/05/13 06:15:42;;;;;;;5.10;3.10;;;;;;;15.86;65.66;99167.47;4939863;28;40803;-79
2023/05/13 06:18:12;;;;;;;3.37;2.87;;;;;;;16.11;65.59;99153.84;4953205;28;42662;-79
2023/05/13 06:20:40;;;;;;;2.60;2.40;;;;;;;16.43;65.57;99158.44;4956158;28;42299;-79
2023/05/13 06:23:07;;;;;;;2.87;2.57;;;;;;;16.55;65.75;99146.72;4956289;28;40652;-79
2023/05/13 06:25:35;;;;;;;3.40;3.10;;;;;;;16.72;64.58;99162.25;4955858;28;42221;-79
2023/05/13 06:28:05;;;;;;;3.50;3.20;;;;;;;16.70;61.74;99171.38;4956302;28;43033;-79
2023/05/13 06:30:32;;;;;;;3.17;2.43;;;;;;;16.73;62.40;99169.28;4973248;28;42277;-79
2023/05/13 06:33:01;;;;;;;3.00;2.80;;;;;;;16.80;61.96;99165.16;4940295;28;39043;-80
2023/05/13 06:35:31;;;;;;;3.83;2.30;;;;;;;16.94;61.00;99173.84;4939695;28;41656;-80
2023/05/13 06:37:59;;;;;;;3.43;3.13;;;;;;;17.15;59.85;99172.91;4956028;28;42476;-81
2023/05/13 06:40:27;;;;;;;3.00;2.70;;;;;;;17.42;59.44;99176.88;4939491;28;41340;-79
2023/05/13 06:42:56;;;;;;;4.97;2.70;;;;;;;17.59;59.62;99150.34;4972351;28;40271;-79
2023/05/13 06:45:30;;;;;;;2.60;2.40;;;;;;;18.00;58.05;99179.91;4954148;28;41826;-80
2023/05/13 06:47:58;;;;;;;3.43;2.60;;;;;;;18.05;58.22;99167.75;4939930;28;41453;-81
2023/05/13 06:50:27;;;;;;;2.60;2.40;;;;;;;18.16;56.94;99156.97;4955412;28;43209;-80
2023/05/13 06:52:55;;;;;;;3.70;2.33;;;;;;;18.44;54.29;99189.34;4971966;28;39823;-79
2023/05/13 06:55:25;;;;;;;4.20;2.57;;;;;;;18.25;54.34;99161.50;4955964;28;43380;-81
2023/05/13 06:57:52;;;;;;;3.47;2.60;;;;;;;18.44;54.85;99178.63;4955594;28;42679;-80
2023/05/13 07:00:20;;;;;;;3.23;2.37;;;;;;;18.49;52.52;99204.06;4955873;28;42265;-80
2023/05/13 07:02:47;;;;;;;3.20;2.37;;;;;;;18.51;53.02;99201.22;4939773;28;39041;-81
2023/05/13 07:05:15;;;;;;;2.60;2.40;;;;;;;18.85;53.08;99197.22;4955405;28;40533;-80
2023/05/13 07:07:44;;;;;;;2.77;2.47;;;;;;;19.10;52.04;99205.72;4955595;28;41766;-81
2023/05/13 07:10:12;;;;;;;3.13;2.90;;;;;;;19.17;51.08;99210.38;4939156;28;41506;-81
2023/05/13 07:12:39;;;;;;;2.80;2.50;;;;;;;19.18;51.34;99206.69;4955805;28;39072;-81
2023/05/13 07:15:08;;;;;;;2.83;2.57;;;;;;;19.40;51.25;99205.56;4955135;28;41743;-81
2023/05/13 07:17:36;;;;;;;2.97;2.77;;;;;;;19.62;51.55;99194.53;4972734;28;42786;-81
2023/05/13 07:20:04;;;;;;;2.80;2.60;;;;;;;19.83;50.61;99206.91;4938803;28;41072;-80
2023/05/13 07:22:31;;;;;;;2.73;2.53;;;;;;;19.98;50.52;99200.09;4955266;28;38982;-79
2023/05/13 07:25:01;;;;;;;2.50;2.30;;;;;;;19.99;49.75;99204.47;4939113;28;40799;-81
2023/05/13 07:27:28;;;;;;;4.63;3.37;;;;;;;19.86;48.98;99207.47;4955043;28;42762;-80
2023/05/13 07:29:56;;;;;;;14.90;6.83;;;;;;;19.88;50.20;99201.97;4939300;28;41312;-82
2023/05/13 07:32:24;;;;;;;5.27;3.50;;;;;;;19.95;51.15;99195.00;4972466;28;40818;-80
2023/05/13 07:34:51;;;;;;;2.80;2.10;;;;;;;20.05;51.19;99190.41;4938790;28;40960;-81
2023/05/13 07:37:19;;;;;;;3.97;2.90;;;;;;;20.14;50.13;99203.00;4939350;28;42701;-80
2023/05/13 07:39:47;;;;;;;23.37;11.43;;;;;;;20.11;51.03;99167.50;4938913;28;42308;-83
2023/05/13 07:42:18;;;;;;;4.47;3.33;;;;;;;20.39;50.83;99183.53;4938923;28;40833;-81
2023/05/13 07:44:45;;;;;;;5.73;3.23;;;;;;;20.50;50.42;99176.22;4952561;28;41796;-82
2023/05/13 07:47:14;;;;;;;3.83;2.43;;;;;;;20.77;49.22;99195.03;4939068;28;41312;-82
2023/05/13 07:49:41;;;;;;;4.23;2.40;;;;;;;20.97;49.34;99177.75;4938432;28;42165;-82
2023/05/13 07:52:09;;;;;;;2.30;2.10;;;;;;;21.33;47.36;99204.69;4939199;28;39009;-84
2023/05/13 07:54:37;;;;;;;2.30;2.10;;;;;;;21.48;45.56;99213.91;4954722;28;41707;-79
2023/05/13 07:57:05;;;;;;;2.70;1.80;;;;;;;21.63;44.72;99220.44;4939204;28;42287;-82
2023/05/13 07:59:34;;;;;;;3.63;2.30;;;;;;;21.87;44.66;99214.38;4971774;28;43196;-80
2023/05/13 08:02:02;;;;;;;1.93;1.83;;;;;;;22.13;43.87;99219.78;4938866;28;40045;-79
2023/05/13 08:04:30;;;;;;;2.23;2.10;;;;;;;22.69;42.82;99234.53;4971605;28;42458;-81
2023/05/13 08:06:57;;;;;;;2.07;1.97;;;;;;;23.25;41.75;99233.81;4938768;28;42113;-80
2023/05/13 08:09:25;;;;;;;2.43;2.23;;;;;;;23.65;39.90;99251.97;4954666;28;42191;-81
2023/05/13 08:11:53;;;;;;;2.60;2.40;;;;;;;23.98;41.03;99231.97;4938690;28;40102;-83
2023/05/13 08:14:21;;;;;;;4.00;1.90;;;;;;;24.16;40.53;99233.63;4954699;28;40866;-84
2023/05/13 08:16:50;;;;;;;2.20;2.03;;;;;;;24.62;40.47;99227.38;4938334;28;41957;-82
2023/05/13 08:19:20;;;;;;;2.80;2.50;;;;;;;25.12;39.18;99245.09;4938431;28;42225;-84
2023/05/13 08:21:48;;;;;;;2.83;2.63;;;;;;;25.56;39.08;99223.59;4954597;28;39926;-82
2023/05/13 08:24:16;;;;;;;2.10;1.90;;;;;;;26.00;40.11;99229.13;4971959;28;41554;-84
2023/05/13 08:26:43;;;;;;;3.17;2.30;;;;;;;26.11;40.00;99216.97;4954341;28;43514;-83
2023/05/13 08:29:14;;;;;;;2.77;2.57;;;;;;;26.04;38.44;99237.78;4938086;28;41718;-86
2023/05/13 08:31:42;;;;;;;2.63;2.43;;;;;;;25.77;40.40;99185.78;4938666;28;41266;-81
2023/05/13 08:34:11;;;;;;;2.90;2.17;;;;;;;26.56;39.55;99226.00;4957598;28;40890;-89
2023/05/13 08:36:39;;;;;;;2.53;2.33;;;;;;;27.58;36.91;99238.47;4957647;28;43798;-82
2023/05/13 08:39:06;;;;;;;3.23;2.60;;;;;;;28.44;33.83;99252.78;4941630;28;42142;-83
2023/05/13 08:41:35;;;;;;;2.30;2.13;;;;;;;29.32;33.13;99257.34;4957180;28;40328;-88
2023/05/13 08:44:05;;;;;;;2.03;1.87;;;;;;;30.08;32.50;99233.31;4957300;28;41383;-87
2023/05/13 08:46:33;;;;;;;3.27;2.27;;;;;;;31.06;30.55;99254.06;4957467;28;41864;-82
2023/05/13 08:49:02;;;;;;;2.23;2.07;;;;;;;31.18;30.30;99265.19;4941283;28;41229;-83
2023/05/13 08:51:32;;;;;;;2.93;2.40;;;;;;;30.75;30.71;99262.22;4957470;28;39194;-91
2023/05/13 08:54:01;;;;;;;3.50;1.90;;;;;;;30.17;30.26;99267.56;4957046;28;41724;-82
2023/05/13 08:56:29;;;;;;;3.17;2.10;;;;;;;29.46;30.54;99261.00;4957081;28;41959;-83
2023/05/13 08:58:57;;;;;;;3.60;2.03;;;;;;;28.95;32.09;99237.75;4940308;28;42101;-83
2023/05/13 09:01:26;;;;;;;2.67;2.00;;;;;;;28.44;33.38;99225.53;4957029;28;38974;-82
2023/05/13 09:03:58;;;;;;;3.23;2.57;;;;;;;28.10;33.58;99229.06;4957170;28;42459;-82
2023/05/13 09:06:27;;;;;;;2.93;2.40;;;;;;;27.73;32.71;99233.81;4956593;28;42733;-87
2023/05/13 09:08:57;;;;;;;2.20;2.00;;;;;;;27.54;34.86;99205.38;4941344;28;41142;-85
2023/05/13 09:11:25;;;;;;;2.30;2.20;;;;;;;27.88;35.19;99217.41;4956903;28;40031;-87
2023/05/13 09:13:58;;;;;;;3.33;3.03;;;;;;;27.98;34.56;99184.38;4940720;28;41386;-82
2023/05/13 09:16:29;;;;;;;3.03;2.80;;;;;;;28.34;33.00;99241.41;4941719;28;42006;-84
2023/05/13 09:18:58;;;;;;;3.27;2.77;;;;;;;28.59;33.22;99235.25;4973491;28;42710;-84
2023/05/13 09:21:28;;;;;;;2.57;2.37;;;;;;;28.84;32.15;99241.06;4956705;28;40344;-83
2023/05/13 09:24:12;;;;;;;2.30;2.17;;;;;;;29.12;34.88;99200.03;4956525;28;42300;-84
2023/05/13 09:26:40;;;;;;;2.70;2.47;;;;;;;29.12;32.73;99229.19;4940243;28;42000;-85
2023/05/13 09:29:19;;;;;;;3.40;2.00;;;;;;;29.02;32.53;99242.41;4956607;28;42688;-83
2023/05/13 09:31:48;;;;;;;2.40;2.20;;;;;;;28.67;32.07;99228.81;4974230;28;40077;-84
2023/05/13 09:34:25;;;;;;;4.07;2.20;;;;;;;28.82;33.36;99215.03;4940246;28;41037;-84
2023/05/13 09:37:00;;;;;;;2.37;2.17;;;;;;;29.20;34.04;99218.94;4941066;28;44349;-82
2023/05/13 09:39:31;;;;;;;2.97;2.40;;;;;;;29.43;32.14;99237.69;4940510;28;41319;-81
2023/05/13 09:42:00;;;;;;;2.87;2.37;;;;;;;29.24;30.73;99224.81;4954084;28;40059;-80
2023/05/13 09:44:28;;;;;;;2.47;2.27;;;;;;;28.88;31.33;99242.34;4939441;28;41831;-81
2023/05/13 09:46:56;;;;;;;2.40;2.20;;;;;;;28.59;33.02;99227.09;4956429;28;42871;-80
2023/05/13 09:49:26;;;;;;;2.40;2.20;;;;;;;28.33;30.87;99239.72;4973534;28;42219;-82
2023/05/13 09:51:54;;;;;;;2.40;2.20;;;;;;;28.32;31.40;99240.75;4956292;28;40994;-86
2023/05/13 09:54:26;;;;;;;2.50;2.30;;;;;;;28.66;32.42;99227.13;4941081;28;42022;-83
2023/05/13 09:57:00;;;;;;;2.70;2.50;;;;;;;29.47;31.84;99221.75;4956303;28;42841;-85
2023/05/13 09:59:28;;;;;;;2.60;2.37;;;;;;;29.81;30.53;99226.16;4940008;28;42313;-81
2023/05/13 10:01:58;;;;;;;3.77;2.30;;;;;;;30.06;28.86;99246.34;4956879;28;40796;-86
2023/05/13 10:04:27;;;;;;;2.47;2.37;;;;;;;30.08;29.21;99238.78;4971146;28;42542;-81
2023/05/13 10:06:56;;;;;;;2.47;2.27;;;;;;;29.64;29.27;99202.03;4940347;28;42819;-84
2023/05/13 10:09:45;;;;;;;4.63;2.60;;;;;;;29.65;30.69;99228.28;4973702;28;43336;-80
2023/05/13 10:12:22;;;;;;;5.37;2.57;;;;;;;30.41;29.51;99248.84;4940979;28;41079;-86
2023/05/13 10:14:51;;;;;;;3.60;2.63;;;;;;;30.52;29.29;99242.69;4956097;28;41059;-82
2023/05/13 10:17:20;;;;;;;2.63;2.40;;;;;;;30.55;28.31;99243.13;4940109;28;41817;-82
2023/05/13 10:19:49;;;;;;;2.60;2.37;;;;;;;30.31;29.53;99236.44;4939511;28;42330;-85
2023/05/13 10:22:26;;;;;;;2.57;2.30;;;;;;;29.84;30.55;99221.13;4956357;28;39929;-84
2023/05/13 10:24:58;;;;;;;2.37;2.27;;;;;;;30.02;30.76;99222.41;4940559;28;41013;-84
2023/05/13 10:27:31;;;;;;;2.43;2.20;;;;;;;30.22;29.68;99224.06;4940623;28;42034;-81
2023/05/13 10:30:00;;;;;;;2.10;1.87;;;;;;;30.14;30.27;99215.25;4971166;28;42513;-87
2023/05/13 10:32:29;;;;;;;2.23;2.13;;;;;;;29.62;29.56;99214.19;4940140;28;39535;-83
2023/05/13 10:35:02;;;;;;;2.60;2.40;;;;;;;29.44;31.73;99198.44;4955600;28;41610;-86
2023/05/13 10:37:56;;;;;;;2.60;2.50;;;;;;;29.17;30.52;99203.00;4940264;28;43025;-85
2023/05/13 10:40:55;;;;;;;2.63;2.43;;;;;;;28.86;29.44;99221.78;4939704;28;42334;-82
2023/05/13 10:43:28;;;;;;;2.50;2.30;;;;;;;28.70;29.88;99217.47;4953306;28;39810;-83
2023/05/13 10:46:01;;;;;;;2.63;2.13;;;;;;;28.70;29.64;99222.09;4955780;28;42138;-84
2023/05/13 10:48:39;;;;;;;4.73;2.13;;;;;;;28.76;30.08;99216.69;4939614;28;42920;-81
2023/05/13 10:51:07;;;;;;;2.77;2.17;;;;;;;28.85;29.21;99220.94;4955063;28;42164;-83
2023/05/13 10:53:38;;;;;;;2.37;2.13;;;;;;;29.01;30.74;99207.97;4939824;28;40112;-81
2023/05/13 10:56:07;;;;;;;2.23;1.83;;;;;;;29.29;31.58;99195.88;4955502;28;41906;-84
2023/05/13 10:58:37;;;;;;;4.57;2.10;;;;;;;29.21;29.10;99220.63;4972667;28;42771;-81
2023/05/13 11:01:16;;;;;;;1.60;1.50;;;;;;;29.15;28.44;99209.69;4971775;28;42221;-83
2023/05/13 11:03:52;;;;;;;2.37;2.17;;;;;;;29.17;28.13;99233.00;4955381;28;39812;-80
2023/05/13 11:06:22;;;;;;;2.90;2.60;;;;;;;28.81;28.00;99227.00;4939681;28;41838;-84
2023/05/13 11:08:51;;;;;;;2.33;1.90;;;;;;;28.62;29.04;99234.03;4955365;28;43522;-84
2023/05/13 11:11:25;;;;;;;2.30;2.10;;;;;;;28.43;30.35;99204.81;4955109;28;42260;-81
2023/05/13 11:13:55;;;;;;;2.00;1.80;;;;;;;28.45;30.26;99221.75;4955484;28;38824;-83
2023/05/13 11:16:23;;;;;;;2.40;2.10;;;;;;;28.32;28.83;99227.97;4955641;28;40693;-84
2023/05/13 11:18:51;;;;;;;2.27;2.00;;;;;;;28.25;31.65;99191.69;4955249;28;42798;-84
2023/05/13 11:21:30;;;;;;;2.77;2.40;;;;;;;28.20;30.28;99214.06;4955185;28;42137;-82
2023/05/13 11:23:58;;;;;;;2.50;2.10;;;;;;;28.22;29.62;99220.16;4939771;28;38984;-82
2023/05/13 11:26:26;;;;;;;2.47;2.23;;;;;;;28.11;30.32;99214.41;4938869;28;41562;-80
2023/05/13 11:28:57;;;;;;;2.37;2.13;;;;;;;28.07;31.60;99200.34;4972725;28;43049;-82
2023/05/13 11:31:27;;;;;;;2.00;1.90;;;;;;;28.03;31.16;99185.47;4971750;28;43317;-81
2023/05/13 11:34:12;;;;;;;2.00;1.90;;;;;;;28.10;30.94;99205.41;4938875;28;38927;-80
2023/05/13 11:36:41;;;;;;;4.90;2.20;;;;;;;28.10;31.57;99171.88;4972307;28;41895;-82
2023/05/13 11:39:12;;;;;;;2.30;2.17;;;;;;;28.36;32.56;99184.84;4954908;28;42648;-86
2023/05/13 11:41:44;;;;;;;2.77;2.53;;;;;;;28.39;30.73;99189.88;4955103;28;42265;-81
2023/05/13 11:44:16;;;;;;;2.53;2.33;;;;;;;28.29;31.22;99197.59;4939246;28;39355;-78
2023/05/13 11:46:54;;;;;;;1.87;1.77;;;;;;;28.26;31.77;99187.09;4972335;28;42447;-86
2023/05/13 11:49:36;;;;;;;2.73;2.10;;;;;;;28.32;31.62;99175.38;4955110;28;42242;-83
2023/05/13 11:52:05;;;;;;;2.30;2.10;;;;;;;28.25;31.67;99180.81;4939193;28;41529;-84
2023/05/13 11:54:39;;;;;;;2.50;2.20;;;;;;;28.57;31.80;99168.38;4938845;28;39774;-81